sensor_id;sensor_type;location;lat;lon;timestamp;pressure;altitude;pressure_sealevel;temperature;humidity
65534;BME280;53640;55.838;37.184;2024-03-06T00:00:53;100218.50;;;-5.44;44.90
65534;BME280;53640;55.838;37.184;2024-03-06T00:03:19;100157.81;;;-5.87;45.03
65534;BME280;53640;55.838;37.184;2024-03-06T00:05:47;100179.03;;;-5.75;45.12
65534;BME280;53640;55.838;37.184;2024-03-06T00:08:13;100171.56;;;-5.82;44.82
65534;BME280;53640;55.838;37.184;2024-03-06T00:10:41;100283.41;;;-5.13;45.01
65534;BME280;53640;55.838;37.184;2024-03-06T00:13:08;100230.91;;;-5.46;44.96
65534;BME280;53640;55.838;37.184;2024-03-06T00:15:35;100255.81;;;-5.36;45.01
65534;BME280;53640;55.838;37.184;2024-03-06T00:18:02;100236.38;;;-5.50;45.01
65534;BME280;53640;55.838;37.184;2024-03-06T00:20:30;100184.09;;;-5.86;44.97
65534;BME280;53640;55.838;37.184;2024-03-06T00:22:56;100244.22;;;-5.48;44.87
65534;BME280;53640;55.838;37.184;2024-03-06T00:25:22;100259.56;;;-5.40;44.97
65534;BME280;53640;55.838;37.184;2024-03-06T00:27:50;100257.69;;;-5.53;44.92
65534;BME280;53640;55.838;37.184;2024-03-06T00:30:20;100198.47;;;-5.91;45.04
65534;BME280;53640;55.838;37.184;2024-03-06T00:32:51;100261.63;;;-5.60;45.05
65534;BME280;53640;55.838;37.184;2024-03-06T00:35:20;100214.44;;;-5.79;44.87
65534;BME280;53640;55.838;37.184;2024-03-06T00:37:47;100266.34;;;-5.51;44.91
65534;BME280;53640;55.838;37.184;2024-03-06T00:40:13;100290.28;;;-5.39;44.95
65534;BME280;53640;55.838;37.184;2024-03-06T00:42:40;100287.94;;;-5.44;44.94
65534;BME280;53640;55.838;37.184;2024-03-06T00:45:08;100282.34;;;-5.54;45.12
65534;BME280;53640;55.838;37.184;2024-03-06T00:47:37;100102.06;;;-6.68;44.98
65534;BME280;53640;55.838;37.184;2024-03-06T00:50:04;100290.34;;;-5.55;45.09
65534;BME280;53640;55.838;37.184;2024-03-06T00:52:33;100247.44;;;-5.87;45.42
65534;BME280;53640;55.838;37.184;2024-03-06T00:55:02;100106.28;;;-6.66;44.95
65534;BME280;53640;55.838;37.184;2024-03-06T00:57:31;100182.78;;;-6.23;45.21
65534;BME280;53640;55.838;37.184;2024-03-06T00:59:58;100248.22;;;-5.85;45.07
65534;BME280;53640;55.838;37.184;2024-03-06T01:02:24;100137.44;;;-6.58;45.35
65534;BME280;53640;55.838;37.184;2024-03-06T01:04:51;100166.28;;;-6.41;45.31
65534;BME280;53640;55.838;37.184;2024-03-06T01:07:17;100240.81;;;-5.94;45.46
65534;BME280;53640;55.838;37.184;2024-03-06T01:09:44;100225.00;;;-6.09;45.33
65534;BME280;53640;55.838;37.184;2024-03-06T01:12:11;100209.03;;;-6.22;45.17
65534;BME280;53640;55.838;37.184;2024-03-06T01:14:37;100095.66;;;-6.94;45.34
65534;BME280;53640;55.838;37.184;2024-03-06T01:17:04;100130.84;;;-6.81;45.45
65534;BME280;53640;55.838;37.184;2024-03-06T01:19:31;100288.75;;;-5.88;45.34
65534;BME280;53640;55.838;37.184;2024-03-06T01:22:00;100147.84;;;-6.71;45.34
65534;BME280;53640;55.838;37.184;2024-03-06T01:24:28;100232.06;;;-6.25;45.39
65534;BME280;53640;55.838;37.184;2024-03-06T01:26:54;100281.31;;;-5.95;45.55
65534;BME280;53640;55.838;37.184;2024-03-06T01:29:20;100145.13;;;-6.85;45.52
65534;BME280;53640;55.838;37.184;2024-03-06T01:31:47;100190.88;;;-6.56;45.55
65534;BME280;53640;55.838;37.184;2024-03-06T01:34:17;100282.97;;;-6.09;45.49
65534;BME280;53640;55.838;37.184;2024-03-06T01:36:44;100234.47;;;-6.36;45.56
65534;BME280;53640;55.838;37.184;2024-03-06T01:39:10;100240.78;;;-6.39;45.60
65534;BME280;53640;55.838;37.184;2024-03-06T01:41:37;100203.53;;;-6.63;45.51
65534;BME280;53640;55.838;37.184;2024-03-06T01:44:04;100204.47;;;-6.64;45.64
65534;BME280;53640;55.838;37.184;2024-03-06T01:46:31;100275.75;;;-6.21;45.74
65534;BME280;53640;55.838;37.184;2024-03-06T01:48:57;100276.78;;;-6.24;45.63
65534;BME280;53640;55.838;37.184;2024-03-06T01:51:25;100255.16;;;-6.44;45.56
65534;BME280;53640;55.838;37.184;2024-03-06T01:53:53;100279.88;;;-6.31;45.28
65534;BME280;53640;55.838;37.184;2024-03-06T01:56:20;100181.56;;;-6.93;45.71
65534;BME280;53640;55.838;37.184;2024-03-06T01:58:47;100248.69;;;-6.55;45.62
65534;BME280;53640;55.838;37.184;2024-03-06T02:01:15;100253.22;;;-6.57;45.74
65534;BME280;53640;55.838;37.184;2024-03-06T02:03:44;100288.09;;;-6.37;45.67
65534;BME280;53640;55.838;37.184;2024-03-06T02:06:11;100163.91;;;-7.23;45.78
65534;BME280;53640;55.838;37.184;2024-03-06T02:08:44;100296.28;;;-6.42;45.86
65534;BME280;53640;55.838;37.184;2024-03-06T02:11:14;100203.81;;;-6.99;45.95
65534;BME280;53640;55.838;37.184;2024-03-06T02:13:43;100232.75;;;-6.83;45.67
65534;BME280;53640;55.838;37.184;2024-03-06T02:16:10;100253.22;;;-6.73;45.90
65534;BME280;53640;55.838;37.184;2024-03-06T02:18:37;100262.66;;;-6.68;45.62
65534;BME280;53640;55.838;37.184;2024-03-06T02:21:04;100284.13;;;-6.60;45.83
65534;BME280;53640;55.838;37.184;2024-03-06T02:23:30;100230.19;;;-7.01;46.07
65534;BME280;53640;55.838;37.184;2024-03-06T02:25:57;100244.56;;;-6.90;45.99
65534;BME280;53640;55.838;37.184;2024-03-06T02:28:24;100263.41;;;-6.82;45.97
65534;BME280;53640;55.838;37.184;2024-03-06T02:30:51;100227.56;;;-7.01;45.85
65534;BME280;53640;55.838;37.184;2024-03-06T02:33:18;100197.25;;;-7.24;45.81
65534;BME280;53640;55.838;37.184;2024-03-06T02:35:46;100092.69;;;-7.83;45.94
65534;BME280;53640;55.838;37.184;2024-03-06T02:38:12;100222.22;;;-7.15;46.00
65534;BME280;53640;55.838;37.184;2024-03-06T02:40:39;100271.56;;;-6.87;46.32
65534;BME280;53640;55.838;37.184;2024-03-06T02:43:05;100230.44;;;-7.21;46.23
65534;BME280;53640;55.838;37.184;2024-03-06T02:45:32;100279.72;;;-6.91;46.26
65534;BME280;53640;55.838;37.184;2024-03-06T02:47:58;100303.41;;;-6.76;46.18
65534;BME280;53640;55.838;37.184;2024-03-06T02:50:26;100256.78;;;-7.05;46.16
65534;BME280;53640;55.838;37.184;2024-03-06T02:52:52;100277.56;;;-7.01;46.05
65534;BME280;53640;55.838;37.184;2024-03-06T02:55:19;100299.13;;;-6.94;46.02
65534;BME280;53640;55.838;37.184;2024-03-06T02:57:46;100266.25;;;-7.18;46.07
65534;BME280;53640;55.838;37.184;2024-03-06T03:00:12;100313.94;;;-6.91;46.04
65534;BME280;53640;55.838;37.184;2024-03-06T03:02:39;100339.63;;;-6.81;46.01
65534;BME280;53640;55.838;37.184;2024-03-06T03:05:06;100324.63;;;-6.94;45.92
65534;BME280;53640;55.838;37.184;2024-03-06T03:07:36;100314.81;;;-7.08;45.73
65534;BME280;53640;55.838;37.184;2024-03-06T03:10:03;100300.03;;;-7.11;45.60
65534;BME280;53640;55.838;37.184;2024-03-06T03:12:31;100342.19;;;-6.95;45.82
65534;BME280;53640;55.838;37.184;2024-03-06T03:14:58;100351.00;;;-6.96;45.81
65534;BME280;53640;55.838;37.184;2024-03-06T03:17:24;100324.75;;;-7.13;45.89
65534;BME280;53640;55.838;37.184;2024-03-06T03:19:51;100248.31;;;-7.61;45.90
65534;BME280;53640;55.838;37.184;2024-03-06T03:22:18;100336.09;;;-7.13;45.88
65534;BME280;53640;55.838;37.184;2024-03-06T03:24:46;100290.22;;;-7.40;45.69
65534;BME280;53640;55.838;37.184;2024-03-06T03:27:13;100296.47;;;-7.43;45.71
65534;BME280;53640;55.838;37.184;2024-03-06T03:29:41;100340.09;;;-7.22;45.67
65534;BME280;53640;55.838;37.184;2024-03-06T03:32:08;100265.09;;;-7.63;45.69
65534;BME280;53640;55.838;37.184;2024-03-06T03:34:34;100280.72;;;-7.60;45.56
65534;BME280;53640;55.838;37.184;2024-03-06T03:37:01;100297.81;;;-7.52;45.60
65534;BME280;53640;55.838;37.184;2024-03-06T03:39:28;100330.81;;;-7.46;45.37
65534;BME280;53640;55.838;37.184;2024-03-06T03:41:55;100253.84;;;-7.83;45.74
65534;BME280;53640;55.838;37.184;2024-03-06T03:44:22;100300.84;;;-7.59;45.75
65534;BME280;53640;55.838;37.184;2024-03-06T03:46:48;100304.13;;;-7.56;45.71
65534;BME280;53640;55.838;37.184;2024-03-06T03:49:15;100339.16;;;-7.38;45.71
65534;BME280;53640;55.838;37.184;2024-03-06T03:51:42;100307.63;;;-7.55;45.85
65534;BME280;53640;55.838;37.184;2024-03-06T03:54:08;100343.16;;;-7.31;45.70
65534;BME280;53640;55.838;37.184;2024-03-06T03:56:35;100344.09;;;-7.32;45.67
65534;BME280;53640;55.838;37.184;2024-03-06T03:59:01;100306.94;;;-7.59;45.46
65534;BME280;53640;55.838;37.184;2024-03-06T04:01:32;100310.47;;;-7.60;45.60
65534;BME280;53640;55.838;37.184;2024-03-06T04:03:59;100305.69;;;-7.69;45.64
65534;BME280;53640;55.838;37.184;2024-03-06T04:06:25;100281.97;;;-7.85;45.73
65534;BME280;53640;55.838;37.184;2024-03-06T04:08:54;100356.16;;;-7.45;45.88
65534;BME280;53640;55.838;37.184;2024-03-06T04:11:30;100248.34;;;-8.13;45.84
65534;BME280;53640;55.838;37.184;2024-03-06T04:13:58;100270.47;;;-8.00;45.72
65534;BME280;53640;55.838;37.184;2024-03-06T04:16:25;100269.63;;;-8.00;45.91
65534;BME280;53640;55.838;37.184;2024-03-06T04:18:52;100237.94;;;-8.14;45.65
65534;BME280;53640;55.838;37.184;2024-03-06T04:21:19;100310.66;;;-7.80;45.60
65534;BME280;53640;55.838;37.184;2024-03-06T04:23:46;100332.44;;;-7.61;45.75
65534;BME280;53640;55.838;37.184;2024-03-06T04:26:30;100327.34;;;-7.64;45.87
65534;BME280;53640;55.838;37.184;2024-03-06T04:28:59;100183.22;;;-8.58;45.64
65534;BME280;53640;55.838;37.184;2024-03-06T04:31:26;100253.94;;;-8.19;45.87
65534;BME280;53640;55.838;37.184;2024-03-06T04:33:53;100247.28;;;-8.26;45.83
65534;BME280;53640;55.838;37.184;2024-03-06T04:36:19;100170.72;;;-8.71;45.72
65534;BME280;53640;55.838;37.184;2024-03-06T04:38:49;100301.28;;;-7.86;45.76
65534;BME280;53640;55.838;37.184;2024-03-06T04:41:20;100330.28;;;-7.70;45.61
65534;BME280;53640;55.838;37.184;2024-03-06T04:43:49;100297.75;;;-7.85;45.70
65534;BME280;53640;55.838;37.184;2024-03-06T04:46:19;100317.31;;;-7.73;45.63
65534;BME280;53640;55.838;37.184;2024-03-06T04:48:49;100242.78;;;-8.24;45.52
65534;BME280;53640;55.838;37.184;2024-03-06T04:51:17;100238.38;;;-8.24;45.43
65534;BME280;53640;55.838;37.184;2024-03-06T04:53:45;100311.75;;;-7.67;45.58
65534;BME280;53640;55.838;37.184;2024-03-06T04:56:12;100326.44;;;-7.63;45.67
65534;BME280;53640;55.838;37.184;2024-03-06T04:58:40;100355.97;;;-7.40;45.67
65534;BME280;53640;55.838;37.184;2024-03-06T05:01:08;100350.53;;;-7.37;45.42
65534;BME280;53640;55.838;37.184;2024-03-06T05:03:35;100320.69;;;-7.54;45.35
65534;BME280;53640;55.838;37.184;2024-03-06T05:06:03;100307.69;;;-7.57;45.45
65534;BME280;53640;55.838;37.184;2024-03-06T05:08:31;100346.34;;;-7.24;45.21
65534;BME280;53640;55.838;37.184;2024-03-06T05:11:00;100341.38;;;-7.30;45.14
65534;BME280;53640;55.838;37.184;2024-03-06T05:13:26;100331.56;;;-7.27;45.08
65534;BME280;53640;55.838;37.184;2024-03-06T05:15:53;100306.69;;;-7.54;44.96
65534;BME280;53640;55.838;37.184;2024-03-06T05:18:21;100310.22;;;-7.38;44.74
65534;BME280;53640;55.838;37.184;2024-03-06T05:20:48;100353.34;;;-7.07;44.77
65534;BME280;53640;55.838;37.184;2024-03-06T05:23:15;100338.91;;;-7.16;44.58
65534;BME280;53640;55.838;37.184;2024-03-06T05:25:43;100234.53;;;-7.82;44.59
65534;BME280;53640;55.838;37.184;2024-03-06T05:28:10;100368.09;;;-6.87;44.46
65534;BME280;53640;55.838;37.184;2024-03-06T05:30:38;100349.66;;;-6.87;44.32
65534;BME280;53640;55.838;37.184;2024-03-06T05:33:04;100324.63;;;-6.94;44.49
65534;BME280;53640;55.838;37.184;2024-03-06T05:35:32;100329.91;;;-6.79;44.02
65534;BME280;53640;55.838;37.184;2024-03-06T05:37:58;100261.66;;;-7.15;43.95
65534;BME280;53640;55.838;37.184;2024-03-06T05:40:25;100351.16;;;-6.50;43.68
65534;BME280;53640;55.838;37.184;2024-03-06T05:42:52;100346.31;;;-6.42;43.62
65534;BME280;53640;55.838;37.184;2024-03-06T05:45:18;100296.53;;;-6.62;43.34
65534;BME280;53640;55.838;37.184;2024-03-06T05:47:46;100240.72;;;-6.85;42.74
65534;BME280;53640;55.838;37.184;2024-03-06T05:50:14;100304.00;;;-6.39;42.80
65534;BME280;53640;55.838;37.184;2024-03-06T05:52:42;100364.72;;;-5.94;42.44
65534;BME280;53640;55.838;37.184;2024-03-06T05:55:09;100254.56;;;-6.50;42.47
65534;BME280;53640;55.838;37.184;2024-03-06T05:57:35;100245.22;;;-6.55;42.23
65534;BME280;53640;55.838;37.184;2024-03-06T06:00:03;100193.09;;;-6.64;41.92
65534;BME280;53640;55.838;37.184;2024-03-06T06:02:38;100285.41;;;-6.06;41.66
65534;BME280;53640;55.838;37.184;2024-03-06T06:05:05;100178.25;;;-6.65;41.25
65534;BME280;53640;55.838;37.184;2024-03-06T06:07:32;100240.81;;;-6.25;41.38
65534;BME280;53640;55.838;37.184;2024-03-06T06:09:59;100264.31;;;-6.06;41.30
65534;BME280;53640;55.838;37.184;2024-03-06T06:12:25;100190.41;;;-6.49;41.04
65534;BME280;53640;55.838;37.184;2024-03-06T06:14:52;100222.75;;;-6.31;40.52
65534;BME280;53640;55.838;37.184;2024-03-06T06:17:18;100266.03;;;-6.05;40.41
65534;BME280;53640;55.838;37.184;2024-03-06T06:19:47;100246.88;;;-6.23;40.34
65534;BME280;53640;55.838;37.184;2024-03-06T06:22:13;100221.69;;;-6.42;40.12
65534;BME280;53640;55.838;37.184;2024-03-06T06:24:41;100309.06;;;-6.04;40.50
65534;BME280;53640;55.838;37.184;2024-03-06T06:27:09;100209.41;;;-6.58;40.64
65534;BME280;53640;55.838;37.184;2024-03-06T06:30:01;100379.75;;;-5.51;40.67
65534;BME280;53640;55.838;37.184;2024-03-06T06:32:30;100228.06;;;-6.47;40.50
65534;BME280;53640;55.838;37.184;2024-03-06T06:34:58;100270.47;;;-6.21;40.42
65534;BME280;53640;55.838;37.184;2024-03-06T06:37:25;100284.38;;;-6.03;40.70
65534;BME280;53640;55.838;37.184;2024-03-06T06:39:51;100214.47;;;-6.39;40.78
65534;BME280;53640;55.838;37.184;2024-03-06T06:42:18;100271.72;;;-5.96;40.76
65534;BME280;53640;55.838;37.184;2024-03-06T06:44:45;100244.84;;;-6.03;40.07
65534;BME280;53640;55.838;37.184;2024-03-06T06:47:12;100313.44;;;-5.59;40.25
65534;BME280;53640;55.838;37.184;2024-03-06T06:49:38;100381.91;;;-5.13;39.91
65534;BME280;53640;55.838;37.184;2024-03-06T06:52:08;100360.81;;;-5.13;39.77
65534;BME280;53640;55.838;37.184;2024-03-06T06:54:34;100361.38;;;-5.08;39.57
65534;BME280;53640;55.838;37.184;2024-03-06T06:57:01;100323.38;;;-5.34;39.22
65534;BME280;53640;55.838;37.184;2024-03-06T06:59:29;100258.41;;;-5.65;39.27
65534;BME280;53640;55.838;37.184;2024-03-06T07:01:55;100393.25;;;-4.68;39.25
65534;BME280;53640;55.838;37.184;2024-03-06T07:04:22;100324.53;;;-4.95;38.85
65534;BME280;53640;55.838;37.184;2024-03-06T07:06:50;100385.22;;;-4.52;38.58
65534;BME280;53640;55.838;37.184;2024-03-06T07:09:16;100393.53;;;-4.44;38.44
65534;BME280;53640;55.838;37.184;2024-03-06T07:11:44;100315.94;;;-4.84;37.78
65534;BME280;53640;55.838;37.184;2024-03-06T07:14:12;100326.69;;;-4.73;37.66
65534;BME280;53640;55.838;37.184;2024-03-06T07:16:43;100350.88;;;-4.52;37.58
65534;BME280;53640;55.838;37.184;2024-03-06T07:19:10;100343.53;;;-4.47;37.61
65534;BME280;53640;55.838;37.184;2024-03-06T07:21:36;100357.56;;;-4.32;37.18
65534;BME280;53640;55.838;37.184;2024-03-06T07:24:05;100337.00;;;-4.41;37.20
65534;BME280;53640;55.838;37.184;2024-03-06T07:26:34;100393.00;;;-4.08;36.66
65534;BME280;53640;55.838;37.184;2024-03-06T07:29:01;100358.84;;;-4.25;36.62
65534;BME280;53640;55.838;37.184;2024-03-06T07:31:28;100397.50;;;-3.95;36.66
65534;BME280;53640;55.838;37.184;2024-03-06T07:34:04;100394.56;;;-3.91;36.80
65534;BME280;53640;55.838;37.184;2024-03-06T07:36:32;100393.00;;;-3.81;36.91
65534;BME280;53640;55.838;37.184;2024-03-06T07:38:59;100394.41;;;-3.75;36.85
65534;BME280;53640;55.838;37.184;2024-03-06T07:41:25;100351.38;;;-3.91;36.35
65534;BME280;53640;55.838;37.184;2024-03-06T07:43:52;100341.88;;;-3.94;36.04
65534;BME280;53640;55.838;37.184;2024-03-06T07:46:18;100385.66;;;-3.63;36.38
65534;BME280;53640;55.838;37.184;2024-03-06T07:48:46;100380.72;;;-3.55;36.36
65534;BME280;53640;55.838;37.184;2024-03-06T07:51:13;100368.44;;;-3.56;36.10
65534;BME280;53640;55.838;37.184;2024-03-06T07:53:39;100378.75;;;-3.38;36.05
65534;BME280;53640;55.838;37.184;2024-03-06T07:56:09;100394.66;;;-3.25;35.74
65534;BME280;53640;55.838;37.184;2024-03-06T07:58:37;100392.44;;;-3.19;35.44
65534;BME280;53640;55.838;37.184;2024-03-06T08:01:04;100397.84;;;-3.08;35.32
65534;BME280;53640;55.838;37.184;2024-03-06T08:03:31;100390.53;;;-3.04;34.77
65534;BME280;53640;55.838;37.184;2024-03-06T08:05:57;100357.06;;;-3.18;34.24
65534;BME280;53640;55.838;37.184;2024-03-06T08:08:23;100394.03;;;-2.91;34.15
65534;BME280;53640;55.838;37.184;2024-03-06T08:10:50;100388.41;;;-2.86;33.57
65534;BME280;53640;55.838;37.184;2024-03-06T08:13:17;100358.88;;;-2.93;34.16
65534;BME280;53640;55.838;37.184;2024-03-06T08:15:45;100356.97;;;-2.78;34.18
65534;BME280;53640;55.838;37.184;2024-03-06T08:18:12;100361.38;;;-2.66;33.51
65534;BME280;53640;55.838;37.184;2024-03-06T08:20:43;100397.16;;;-2.35;33.04
65534;BME280;53640;55.838;37.184;2024-03-06T08:23:10;100391.72;;;-2.20;32.75
65534;BME280;53640;55.838;37.184;2024-03-06T08:25:37;100298.22;;;-2.72;32.17
65534;BME280;53640;55.838;37.184;2024-03-06T08:28:04;100398.78;;;-1.95;32.23
65534;BME280;53640;55.838;37.184;2024-03-06T08:30:33;100377.69;;;-2.10;32.19
65534;BME280;53640;55.838;37.184;2024-03-06T08:32:59;100359.97;;;-2.09;31.91
65534;BME280;53640;55.838;37.184;2024-03-06T08:35:26;100385.88;;;-1.89;31.00
65534;BME280;53640;55.838;37.184;2024-03-06T08:37:52;100404.94;;;-1.71;31.00
65534;BME280;53640;55.838;37.184;2024-03-06T08:40:19;100379.13;;;-1.69;30.70
65534;BME280;53640;55.838;37.184;2024-03-06T08:42:47;100331.53;;;-1.83;30.49
65534;BME280;53640;55.838;37.184;2024-03-06T08:45:13;100379.72;;;-1.41;30.01
65534;BME280;53640;55.838;37.184;2024-03-06T08:47:44;100392.22;;;-1.19;29.64
65534;BME280;53640;55.838;37.184;2024-03-06T08:50:13;100364.44;;;-1.26;29.64
65534;BME280;53640;55.838;37.184;2024-03-06T08:52:40;100358.97;;;-1.25;29.31
65534;BME280;53640;55.838;37.184;2024-03-06T08:55:08;100392.88;;;-0.93;28.99
65534;BME280;53640;55.838;37.184;2024-03-06T08:57:36;100390.56;;;-0.87;28.38
65534;BME280;53640;55.838;37.184;2024-03-06T09:00:04;100244.25;;;-1.64;28.24
65534;BME280;53640;55.838;37.184;2024-03-06T09:02:34;100338.16;;;-0.96;27.82
65534;BME280;53640;55.838;37.184;2024-03-06T09:05:01;100372.25;;;-0.56;27.98
65534;BME280;53640;55.838;37.184;2024-03-06T09:07:31;100369.44;;;-0.32;28.24
65534;BME280;53640;55.838;37.184;2024-03-06T09:09:57;100331.22;;;-0.20;27.20
65534;BME280;53640;55.838;37.184;2024-03-06T09:12:23;100327.16;;;0.08;26.55
65534;BME280;53640;55.838;37.184;2024-03-06T09:14:51;100288.75;;;0.11;26.28
65534;BME280;53640;55.838;37.184;2024-03-06T09:17:17;100363.50;;;0.83;25.75
65534;BME280;53640;55.838;37.184;2024-03-06T09:19:44;100306.88;;;0.70;25.31
65534;BME280;53640;55.838;37.184;2024-03-06T09:22:10;100318.63;;;0.89;25.28
65534;BME280;53640;55.838;37.184;2024-03-06T09:24:36;100361.69;;;1.36;25.13
65534;BME280;53640;55.838;37.184;2024-03-06T09:27:04;100364.97;;;1.49;25.07
65534;BME280;53640;55.838;37.184;2024-03-06T09:29:31;100369.41;;;1.69;25.33
65534;BME280;53640;55.838;37.184;2024-03-06T09:31:57;100358.63;;;1.80;25.14
65534;BME280;53640;55.838;37.184;2024-03-06T09:34:25;100319.53;;;1.60;24.61
65534;BME280;53640;55.838;37.184;2024-03-06T09:36:51;100309.41;;;1.64;24.16
65534;BME280;53640;55.838;37.184;2024-03-06T09:39:19;100307.19;;;1.69;24.10
65534;BME280;53640;55.838;37.184;2024-03-06T09:41:54;100340.13;;;1.89;24.24
65534;BME280;53640;55.838;37.184;2024-03-06T09:44:22;100296.50;;;1.59;24.07
65534;BME280;53640;55.838;37.184;2024-03-06T09:46:49;100255.97;;;1.25;24.25
65534;BME280;53640;55.838;37.184;2024-03-06T09:49:19;100307.28;;;1.57;24.05
65534;BME280;53640;55.838;37.184;2024-03-06T09:51:47;100303.47;;;1.50;24.11
65534;BME280;53640;55.838;37.184;2024-03-06T09:54:16;100334.28;;;1.64;24.41
65534;BME280;53640;55.838;37.184;2024-03-06T09:56:43;100339.63;;;1.64;24.34
65534;BME280;53640;55.838;37.184;2024-03-06T09:59:11;100328.06;;;1.54;24.34
65534;BME280;53640;55.838;37.184;2024-03-06T10:01:55;100352.53;;;1.59;24.51
65534;BME280;53640;55.838;37.184;2024-03-06T10:04:27;100350.53;;;1.51;24.65
65534;BME280;53640;55.838;37.184;2024-03-06T10:06:59;100328.84;;;1.35;24.33
65534;BME280;53640;55.838;37.184;2024-03-06T10:09:26;100325.56;;;1.22;24.06
65534;BME280;53640;55.838;37.184;2024-03-06T10:11:53;100315.41;;;1.16;24.62
65534;BME280;53640;55.838;37.184;2024-03-06T10:14:22;100329.88;;;1.13;24.75
65534;BME280;53640;55.838;37.184;2024-03-06T10:16:55;100340.41;;;1.15;24.52
65534;BME280;53640;55.838;37.184;2024-03-06T10:19:27;100324.41;;;0.94;24.45
65534;BME280;53640;55.838;37.184;2024-03-06T10:21:57;100284.38;;;0.63;24.53
65534;BME280;53640;55.838;37.184;2024-03-06T10:24:27;100342.25;;;0.93;24.56
65534;BME280;53640;55.838;37.184;2024-03-06T10:26:57;100285.19;;;0.54;24.38
65534;BME280;53640;55.838;37.184;2024-03-06T10:29:28;100337.94;;;0.81;24.37
65534;BME280;53640;55.838;37.184;2024-03-06T10:31:56;100286.66;;;0.47;24.34
65534;BME280;53640;55.838;37.184;2024-03-06T10:34:25;100237.09;;;0.14;24.83
65534;BME280;53640;55.838;37.184;2024-03-06T10:36:57;100303.94;;;0.52;24.57
65534;BME280;53640;55.838;37.184;2024-03-06T10:39:25;100310.25;;;0.51;24.44
65534;BME280;53640;55.838;37.184;2024-03-06T10:41:57;100332.53;;;0.71;24.13
65534;BME280;53640;55.838;37.184;2024-03-06T10:44:26;100335.41;;;0.79;24.44
65534;BME280;53640;55.838;37.184;2024-03-06T10:47:02;100303.22;;;0.71;24.37
65534;BME280;53640;55.838;37.184;2024-03-06T10:49:30;100328.19;;;0.91;23.90
65534;BME280;53640;55.838;37.184;2024-03-06T10:51:58;100320.13;;;1.02;23.64
65534;BME280;53640;55.838;37.184;2024-03-06T10:54:29;100281.25;;;1.00;24.22
65534;BME280;53640;55.838;37.184;2024-03-06T10:56:57;100293.78;;;1.40;23.55
65534;BME280;53640;55.838;37.184;2024-03-06T10:59:27;100316.75;;;1.71;22.64
65534;BME280;53640;55.838;37.184;2024-03-06T11:01:58;100298.22;;;1.70;22.83
65534;BME280;53640;55.838;37.184;2024-03-06T11:04:29;100298.78;;;1.73;22.68
65534;BME280;53640;55.838;37.184;2024-03-06T11:06:57;100319.75;;;2.07;23.11
65534;BME280;53640;55.838;37.184;2024-03-06T11:09:26;100271.25;;;2.02;21.62
65534;BME280;53640;55.838;37.184;2024-03-06T11:11:53;100314.56;;;2.54;21.88
65534;BME280;53640;55.838;37.184;2024-03-06T11:14:24;100270.91;;;2.63;21.51
65534;BME280;53640;55.838;37.184;2024-03-06T11:17:09;100245.72;;;3.13;20.44
65534;BME280;53640;55.838;37.184;2024-03-06T11:23:07;100301.41;;;4.71;18.96
65534;BME280;53640;55.838;37.184;2024-03-06T11:28:23;100252.38;;;4.87;19.15
65534;BME280;53640;55.838;37.184;2024-03-06T11:31:04;100264.19;;;5.29;18.86
65534;BME280;53640;55.838;37.184;2024-03-06T11:33:35;100282.13;;;5.70;17.87
65534;BME280;53640;55.838;37.184;2024-03-06T11:36:21;100205.03;;;5.38;17.93
65534;BME280;53640;55.838;37.184;2024-03-06T11:39:15;100291.97;;;6.04;17.68
65534;BME280;53640;55.838;37.184;2024-03-06T11:44:14;100263.75;;;6.16;17.95
65534;BME280;53640;55.838;37.184;2024-03-06T11:46:48;100289.78;;;6.73;17.24
65534;BME280;53640;55.838;37.184;2024-03-06T11:49:22;100254.13;;;6.79;17.17
65534;BME280;53640;55.838;37.184;2024-03-06T11:51:56;100233.59;;;6.95;17.39
65534;BME280;53640;55.838;37.184;2024-03-06T11:54:24;100273.53;;;7.38;16.44
65534;BME280;53640;55.838;37.184;2024-03-06T11:56:58;100239.03;;;7.26;16.53
65534;BME280;53640;55.838;37.184;2024-03-06T11:59:28;100220.00;;;7.35;16.74
65534;BME280;53640;55.838;37.184;2024-03-06T12:01:57;100263.94;;;7.67;16.36
65534;BME280;53640;55.838;37.184;2024-03-06T12:04:24;100260.00;;;7.78;16.66
65534;BME280;53640;55.838;37.184;2024-03-06T12:06:56;100227.50;;;7.48;16.34
65534;BME280;53640;55.838;37.184;2024-03-06T12:09:24;100251.81;;;7.32;16.33
65534;BME280;53640;55.838;37.184;2024-03-06T12:11:50;100227.06;;;6.97;16.37
65534;BME280;53640;55.838;37.184;2024-03-06T12:14:18;100242.84;;;7.08;16.76
65534;BME280;53640;55.838;37.184;2024-03-06T12:16:54;100238.69;;;6.89;16.74
65534;BME280;53640;55.838;37.184;2024-03-06T12:19:22;100216.41;;;7.12;16.72
65534;BME280;53640;55.838;37.184;2024-03-06T12:21:49;100191.03;;;7.37;16.44
65534;BME280;53640;55.838;37.184;2024-03-06T12:24:16;100226.91;;;7.92;16.13
65534;BME280;53640;55.838;37.184;2024-03-06T12:26:47;100167.25;;;7.95;16.33
65534;BME280;53640;55.838;37.184;2024-03-06T12:29:28;100243.53;;;8.65;15.30
65534;BME280;53640;55.838;37.184;2024-03-06T12:31:54;100226.97;;;8.82;14.71
65534;BME280;53640;55.838;37.184;2024-03-06T12:34:22;100236.84;;;8.90;14.43
65534;BME280;53640;55.838;37.184;2024-03-06T12:36:49;100221.13;;;9.23;14.52
65534;BME280;53640;55.838;37.184;2024-03-06T12:39:16;100190.22;;;9.47;14.50
65534;BME280;53640;55.838;37.184;2024-03-06T12:41:47;100241.75;;;9.97;13.97
65534;BME280;53640;55.838;37.184;2024-03-06T12:44:13;100237.69;;;10.07;13.95
65534;BME280;53640;55.838;37.184;2024-03-06T12:46:41;100212.78;;;10.12;13.78
65534;BME280;53640;55.838;37.184;2024-03-06T12:49:08;100191.63;;;10.22;13.83
65534;BME280;53640;55.838;37.184;2024-03-06T12:51:36;100186.06;;;10.02;13.64
65534;BME280;53640;55.838;37.184;2024-03-06T12:54:03;100194.44;;;9.50;13.53
65534;BME280;53640;55.838;37.184;2024-03-06T12:56:30;100187.63;;;8.88;13.92